Sunfield, Michigan
Current Conditions -  °F | °C
As of 5:14 PM on Saturday 25 Oct 2014 (Local Time) from KY70 Reporting Station
Clear Clear  
Wind Chill: 64°   Ceiling: Unl
Heat Index: 64°   Visibility: 10mi
Dew Point: 32°   Wind: 21mph
Humidity: 31%   Direction: 280°W
Pressure: 29.78"   Gusts: 32mph
Location:  42.76°N, 84.99°W
Report Text: KY70 252114Z AUTO 28018G28KT 10SM CLR 18/00 A2978 RMK AO2 T01750002
Loading
Personal Weather Stations






























Interactive Weather Map
Tropical Storm Tracking
New forecast layout! Learn more

10-Day Weather Forecast

Advertisements
Track Severe Weather on mobile